createdAt,value
2022-09-20T00:00:00.187Z,8.49
2022-09-20T00:01:08.213Z,8.49
2022-09-20T00:02:11.194Z,8.42
2022-09-20T00:03:14.942Z,8.34
2022-09-20T00:04:17.651Z,8.42
2022-09-20T00:05:20.272Z,8.40
2022-09-20T00:06:29.737Z,8.39
2022-09-20T00:07:32.833Z,8.40
2022-09-20T00:08:37.690Z,8.34
2022-09-20T00:09:41.155Z,8.29
2022-09-20T00:10:43.768Z,8.27
2022-09-20T00:11:46.371Z,8.35
2022-09-20T00:12:48.936Z,8.34
2022-09-20T00:13:54.849Z,8.31
2022-09-20T00:14:57.673Z,8.34
2022-09-20T00:16:00.653Z,8.28
2022-09-20T00:17:03.414Z,8.27
2022-09-20T00:18:06.263Z,8.35
2022-09-20T00:19:10.000Z,8.35
2022-09-20T00:20:12.767Z,8.41
2022-09-20T00:21:21.244Z,8.36
2022-09-20T00:22:23.812Z,8.42
2022-09-20T00:23:26.443Z,8.40
2022-09-20T00:24:29.124Z,8.42
2022-09-20T00:25:32.133Z,8.42
2022-09-20T00:26:34.852Z,8.40
2022-09-20T00:27:37.509Z,8.18
2022-09-20T00:28:41.595Z,8.24
2022-09-20T00:29:44.562Z,8.27
2022-09-20T00:30:47.293Z,8.26
2022-09-20T00:31:49.843Z,8.29
2022-09-20T00:32:52.495Z,8.17
2022-09-20T00:34:15.122Z,8.28
2022-09-20T00:35:17.683Z,8.35
2022-09-20T00:36:20.335Z,8.38
2022-09-20T00:37:22.969Z,8.34
2022-09-20T00:38:25.744Z,8.40
2022-09-20T00:39:28.464Z,8.28
2022-09-20T00:40:31.098Z,8.28
2022-09-20T00:41:34.165Z,8.37
2022-09-20T00:42:37.407Z,8.37
2022-09-20T00:43:45.813Z,8.33
2022-09-20T00:44:54.061Z,8.35
2022-09-20T00:45:56.991Z,8.33
2022-09-20T00:47:01.267Z,8.35
2022-09-20T00:48:44.275Z,8.30
2022-09-20T00:49:48.777Z,8.37
2022-09-20T00:50:59.070Z,8.32
2022-09-20T00:52:02.580Z,8.30
2022-09-20T00:53:34.473Z,8.28
2022-09-20T00:54:37.464Z,8.19
2022-09-20T00:55:50.009Z,8.15
2022-09-20T00:56:52.914Z,8.20
2022-09-20T00:57:55.760Z,8.25
2022-09-20T00:59:33.406Z,8.27
2022-09-20T01:00:37.335Z,8.30
2022-09-20T01:01:40.266Z,8.19
2022-09-20T01:02:53.839Z,8.09
2022-09-20T01:03:57.412Z,8.15
2022-09-20T01:05:00.450Z,8.18
2022-09-20T01:06:08.399Z,8.14
2022-09-20T01:07:16.001Z,8.19
2022-09-20T01:08:19.054Z,8.17
2022-09-20T01:09:21.790Z,8.17
2022-09-20T01:10:24.858Z,8.21
2022-09-20T01:11:29.421Z,8.26
2022-09-20T01:12:35.656Z,8.26
2022-09-20T01:13:38.216Z,8.26
2022-09-20T01:14:43.782Z,8.26
2022-09-20T01:15:48.437Z,8.14
2022-09-20T01:16:55.544Z,8.21
2022-09-20T01:18:02.124Z,8.22
2022-09-20T01:19:36.823Z,8.18
2022-09-20T01:20:42.536Z,8.26
2022-09-20T01:21:46.816Z,8.30
2022-09-20T01:23:13.703Z,8.19
2022-09-20T01:24:45.746Z,8.23
2022-09-20T01:25:56.699Z,8.36
2022-09-20T01:27:51.732Z,8.32
2022-09-20T01:29:33.364Z,8.20
2022-09-20T01:30:49.835Z,8.11
2022-09-20T01:31:58.475Z,8.28
2022-09-20T01:33:04.214Z,8.16
2022-09-20T01:34:33.697Z,8.44
2022-09-20T01:35:36.977Z,8.36
2022-09-20T01:36:48.096Z,8.31
2022-09-20T01:37:56.481Z,8.39
2022-09-20T01:38:59.091Z,8.42
2022-09-20T01:40:15.264Z,8.46
2022-09-20T01:41:24.902Z,8.47
2022-09-20T01:42:36.374Z,8.36
2022-09-20T01:43:50.988Z,8.40
2022-09-20T01:44:56.594Z,8.40
2022-09-20T01:46:08.009Z,8.21
2022-09-20T01:47:23.190Z,8.25
2022-09-20T01:48:37.900Z,8.34
2022-09-20T01:49:55.977Z,8.29
2022-09-20T01:51:14.928Z,8.28
2022-09-20T01:53:04.292Z,8.46
2022-09-20T01:54:18.884Z,8.35
2022-09-20T01:55:33.573Z,8.47
2022-09-20T01:56:57.897Z,8.51
2022-09-20T01:58:19.181Z,8.47
2022-09-20T01:59:43.500Z,8.37
2022-09-20T02:01:16.960Z,8.41
2022-09-20T02:02:28.851Z,8.31
2022-09-20T02:03:56.081Z,8.21
2022-09-20T02:05:23.813Z,8.25
2022-09-20T02:06:49.151Z,8.26
2022-09-20T02:07:55.010Z,8.26
2022-09-20T02:09:29.790Z,8.45
2022-09-20T02:10:50.446Z,8.43
2022-09-20T02:12:23.137Z,8.48
2022-09-20T02:13:29.772Z,8.47
2022-09-20T02:14:38.005Z,8.41
2022-09-20T02:16:00.303Z,8.49
2022-09-20T02:17:02.875Z,8.43
2022-09-20T02:18:26.759Z,8.48
2022-09-20T02:19:54.849Z,8.52
2022-09-20T02:21:30.283Z,8.41
2022-09-20T02:22:51.659Z,8.55
2022-09-20T02:24:12.118Z,8.57
2022-09-20T02:25:21.429Z,8.59
2022-09-20T02:26:51.779Z,8.55
2022-09-20T02:28:21.221Z,8.63
2022-09-20T02:29:48.770Z,8.55
2022-09-20T02:31:11.693Z,8.53
2022-09-20T02:32:38.976Z,8.53
2022-09-20T02:33:53.316Z,8.55
2022-09-20T02:35:22.099Z,8.70
2022-09-20T02:36:28.116Z,8.51
2022-09-20T02:37:55.544Z,8.44
2022-09-20T02:39:04.177Z,8.47
2022-09-20T02:40:18.680Z,8.44
2022-09-20T02:42:04.325Z,8.41
2022-09-20T02:43:25.523Z,8.42
2022-09-20T02:44:40.272Z,8.46
2022-09-20T02:46:01.688Z,8.35
2022-09-20T02:47:27.972Z,8.47
2022-09-20T02:48:48.821Z,8.45
2022-09-20T02:50:01.381Z,8.49
2022-09-20T02:51:31.460Z,8.60
2022-09-20T02:52:46.846Z,8.46
2022-09-20T02:54:22.121Z,8.27
2022-09-20T02:55:36.611Z,8.34
2022-09-20T02:56:52.123Z,8.43
2022-09-20T02:58:17.920Z,8.48
2022-09-20T02:59:47.514Z,8.40
2022-09-20T03:01:24.498Z,8.19
2022-09-20T03:02:51.721Z,8.36
2022-09-20T03:04:03.556Z,8.26
2022-09-20T03:05:17.392Z,8.18
2022-09-20T03:06:57.676Z,8.20
2022-09-20T03:08:33.640Z,8.21
2022-09-20T03:10:15.529Z,8.25
2022-09-20T03:11:26.989Z,8.06
2022-09-20T03:12:47.543Z,8.10
2022-09-20T03:14:12.051Z,8.10
2022-09-20T03:15:29.979Z,8.21
2022-09-20T03:16:52.053Z,8.22
2022-09-20T03:18:12.284Z,8.15
2022-09-20T03:19:24.883Z,8.20
2022-09-20T03:20:34.699Z,7.95
2022-09-20T03:21:58.095Z,8.04
2022-09-20T03:23:09.600Z,8.04
2022-09-20T03:24:20.696Z,8.09
2022-09-20T03:25:58.983Z,8.13
2022-09-20T03:27:28.485Z,8.08
2022-09-20T03:28:44.244Z,8.05
2022-09-20T03:30:19.682Z,8.04
2022-09-20T03:31:31.462Z,8.02
2022-09-20T03:32:49.090Z,8.06
2022-09-20T03:34:03.697Z,8.23
2022-09-20T03:35:29.673Z,8.09
2022-09-20T03:37:02.409Z,8.04
2022-09-20T03:38:24.338Z,8.08
2022-09-20T03:39:39.340Z,8.06
2022-09-20T03:40:47.866Z,8.08
2022-09-20T03:42:16.951Z,8.04
2022-09-20T03:43:41.286Z,8.09
2022-09-20T03:45:36.858Z,8.08
2022-09-20T03:46:46.851Z,7.99
2022-09-20T03:47:55.603Z,8.00
2022-09-20T03:49:10.136Z,8.21
2022-09-20T03:50:45.275Z,8.23
2022-09-20T03:51:56.698Z,8.49
2022-09-20T03:53:14.083Z,8.34
2022-09-20T03:54:54.173Z,8.14
2022-09-20T03:56:15.293Z,8.13
2022-09-20T03:57:36.247Z,8.23
2022-09-20T03:58:41.658Z,8.16
2022-09-20T04:00:01.921Z,8.27
2022-09-20T04:01:29.014Z,8.11
2022-09-20T04:02:57.229Z,8.03
2022-09-20T04:04:17.858Z,8.19
2022-09-20T04:05:46.891Z,8.05
2022-09-20T04:06:57.340Z,8.08
2022-09-20T04:08:20.007Z,8.13
2022-09-20T04:09:41.587Z,8.17
2022-09-20T04:11:08.355Z,8.14
2022-09-20T04:12:33.450Z,8.19
2022-09-20T04:13:52.741Z,8.11
2022-09-20T04:15:13.426Z,8.09
2022-09-20T04:16:40.999Z,8.00
2022-09-20T04:17:56.058Z,7.94
2022-09-20T04:19:22.109Z,7.97
2022-09-20T04:20:44.170Z,7.91
2022-09-20T04:21:57.278Z,7.84
2022-09-20T04:23:09.240Z,7.73
2022-09-20T04:24:39.503Z,7.86
2022-09-20T04:25:48.546Z,7.80
2022-09-20T04:26:59.125Z,7.66
2022-09-20T04:28:27.512Z,7.55
2022-09-20T04:29:45.638Z,7.47
2022-09-20T04:30:52.131Z,7.57
2022-09-20T04:32:07.567Z,7.59
2022-09-20T04:33:12.759Z,7.53
2022-09-20T04:34:45.320Z,7.52
2022-09-20T04:36:29.008Z,7.55
2022-09-20T04:37:38.614Z,7.57
2022-09-20T04:38:41.616Z,7.46
2022-09-20T04:39:56.202Z,7.52
2022-09-20T04:41:16.873Z,7.48
2022-09-20T04:42:54.886Z,7.57
2022-09-20T04:44:29.724Z,7.38
2022-09-20T04:45:53.538Z,7.33
2022-09-20T04:47:21.029Z,7.56
2022-09-20T04:49:04.594Z,7.42
2022-09-20T04:50:49.116Z,7.42
2022-09-20T04:51:51.673Z,7.39
2022-09-20T04:52:57.056Z,7.41
2022-09-20T04:54:13.251Z,7.26
2022-09-20T04:55:37.147Z,7.25
2022-09-20T04:56:54.678Z,7.15
2022-09-20T04:58:19.639Z,7.22
2022-09-20T04:59:43.610Z,7.16
2022-09-20T05:01:17.277Z,7.19
2022-09-20T05:02:40.239Z,7.15
2022-09-20T05:03:51.839Z,7.20
2022-09-20T05:05:42.475Z,7.19
2022-09-20T05:07:09.797Z,7.35
2022-09-20T05:08:27.159Z,7.42
2022-09-20T05:09:58.700Z,7.52
2022-09-20T05:11:47.406Z,7.60
2022-09-20T05:13:24.829Z,7.52
2022-09-20T05:14:45.418Z,7.61
2022-09-20T05:15:58.834Z,7.47
2022-09-20T05:17:07.451Z,7.55
2022-09-20T05:18:35.927Z,7.42
2022-09-20T05:19:51.093Z,7.47
2022-09-20T05:21:20.139Z,7.39
2022-09-20T05:22:28.541Z,7.45
2022-09-20T05:23:46.662Z,7.52
2022-09-20T05:25:14.977Z,7.53
2022-09-20T05:26:34.324Z,7.57
2022-09-20T05:27:46.780Z,7.50
2022-09-20T05:28:55.619Z,7.50
2022-09-20T05:30:49.168Z,7.38
2022-09-20T05:32:02.285Z,7.39
2022-09-20T05:33:45.195Z,7.50
2022-09-20T05:35:09.593Z,7.62
2022-09-20T05:36:34.442Z,7.71
2022-09-20T05:37:46.913Z,7.78
2022-09-20T05:39:03.580Z,7.86
2022-09-20T05:40:19.056Z,7.93
2022-09-20T05:41:37.098Z,8.08
2022-09-20T05:42:50.349Z,8.11
2022-09-20T05:43:55.297Z,7.98
2022-09-20T05:45:37.253Z,7.90
2022-09-20T05:47:18.159Z,7.91
2022-09-20T05:48:37.757Z,7.97
2022-09-20T05:50:15.850Z,7.94
2022-09-20T05:51:24.213Z,8.17
2022-09-20T05:53:03.920Z,8.06
2022-09-20T05:54:40.332Z,8.13
2022-09-20T05:56:09.057Z,8.12
2022-09-20T05:57:33.085Z,8.06
2022-09-20T05:58:44.635Z,8.06
2022-09-20T06:00:03.500Z,8.11
2022-09-20T06:01:30.714Z,7.99
2022-09-20T06:02:50.201Z,8.09
2022-09-20T06:04:18.323Z,8.15
2022-09-20T06:05:33.590Z,8.20
2022-09-20T06:07:07.232Z,8.17
2022-09-20T06:08:18.797Z,8.13
2022-09-20T06:09:43.245Z,8.14
2022-09-20T06:10:57.805Z,8.19
2022-09-20T06:12:19.795Z,8.15
2022-09-20T06:13:44.798Z,8.23
2022-09-20T06:14:51.017Z,8.20
2022-09-20T06:16:06.472Z,8.19
2022-09-20T06:17:27.496Z,8.18
2022-09-20T06:18:59.004Z,8.36
2022-09-20T06:20:13.399Z,8.42
2022-09-20T06:21:46.754Z,8.51
2022-09-20T06:22:52.494Z,8.70
2022-09-20T06:24:00.825Z,8.60
2022-09-20T06:25:15.970Z,8.56
2022-09-20T06:26:26.275Z,8.62
2022-09-20T06:27:34.084Z,8.68
2022-09-20T06:28:43.426Z,8.71
2022-09-20T06:29:52.939Z,8.77
2022-09-20T06:30:57.413Z,8.78
2022-09-20T06:32:00.314Z,8.74
2022-09-20T06:33:08.734Z,8.88
2022-09-20T06:34:14.422Z,8.96
2022-09-20T06:35:17.105Z,9.04
2022-09-20T06:36:47.412Z,8.97
2022-09-20T06:38:47.082Z,9.01
2022-09-20T06:40:25.145Z,9.05
2022-09-20T06:41:30.950Z,9.21
2022-09-20T06:42:33.702Z,9.39
2022-09-20T06:43:40.023Z,9.38
2022-09-20T06:44:43.475Z,9.43
2022-09-20T06:45:47.290Z,9.40
2022-09-20T06:46:54.514Z,9.29
2022-09-20T06:47:57.180Z,9.38
2022-09-20T06:49:00.155Z,9.36
2022-09-20T06:50:03.032Z,9.44
2022-09-20T06:51:09.466Z,9.43
2022-09-20T06:52:17.177Z,9.53
2022-09-20T06:53:29.783Z,9.53
2022-09-20T06:54:33.193Z,9.63
2022-09-20T06:55:41.350Z,9.58
2022-09-20T06:56:46.946Z,9.63
2022-09-20T06:57:50.145Z,9.78
2022-09-20T06:58:53.476Z,9.83
2022-09-20T06:59:55.988Z,9.99
2022-09-20T07:00:58.584Z,10.01
2022-09-20T07:02:01.288Z,10.05
2022-09-20T07:03:04.197Z,10.16
2022-09-20T07:04:06.931Z,10.26
2022-09-20T07:05:22.170Z,10.24
2022-09-20T07:06:24.981Z,10.27
2022-09-20T07:07:27.697Z,10.30
2022-09-20T07:08:30.616Z,10.25
2022-09-20T07:09:33.604Z,10.09
2022-09-20T07:10:36.445Z,10.17
2022-09-20T07:11:39.111Z,10.14
2022-09-20T07:12:42.077Z,10.21
2022-09-20T07:13:45.549Z,10.20
2022-09-20T07:14:48.192Z,10.31
2022-09-20T07:15:51.346Z,10.13
2022-09-20T07:16:54.905Z,10.13
2022-09-20T07:17:57.583Z,10.08
2022-09-20T07:19:00.704Z,10.14
2022-09-20T07:20:03.588Z,10.10
2022-09-20T07:21:06.453Z,9.89
2022-09-20T07:22:09.214Z,9.86
2022-09-20T07:23:11.805Z,10.03
2022-09-20T07:24:15.264Z,10.00
2022-09-20T07:25:21.052Z,10.02
2022-09-20T07:26:29.568Z,10.12
2022-09-20T07:27:32.326Z,10.13
2022-09-20T07:28:35.418Z,10.20
2022-09-20T07:29:38.290Z,10.24
2022-09-20T07:30:40.873Z,10.20
2022-09-20T07:31:43.622Z,10.21
2022-09-20T07:32:46.262Z,10.26
2022-09-20T07:33:49.409Z,10.23
2022-09-20T07:34:51.998Z,10.12
2022-09-20T07:35:55.916Z,10.16
2022-09-20T07:37:00.110Z,10.22
2022-09-20T07:38:03.470Z,10.13
2022-09-20T07:39:06.084Z,10.07
2022-09-20T07:40:11.030Z,10.10
2022-09-20T07:41:14.161Z,10.07
2022-09-20T07:42:17.011Z,10.21
2022-09-20T07:43:19.596Z,10.17
2022-09-20T07:44:24.552Z,10.29
2022-09-20T07:45:27.351Z,10.31
2022-09-20T07:46:30.135Z,10.45
2022-09-20T07:47:33.582Z,10.49
2022-09-20T07:48:37.034Z,10.55
2022-09-20T07:49:39.771Z,10.61
2022-09-20T07:50:51.206Z,10.61
2022-09-20T07:51:54.483Z,10.58
2022-09-20T07:52:57.827Z,10.71
2022-09-20T07:54:00.728Z,10.79
2022-09-20T07:55:03.569Z,11.07
2022-09-20T07:56:08.071Z,11.19
2022-09-20T07:57:10.676Z,11.34
2022-09-20T07:58:13.305Z,11.35
2022-09-20T07:59:16.736Z,11.64
2022-09-20T08:00:19.569Z,11.81
2022-09-20T08:01:22.942Z,12.09
2022-09-20T08:02:25.742Z,12.18
2022-09-20T08:03:31.265Z,12.12
2022-09-20T08:04:33.916Z,12.19
2022-09-20T08:05:36.561Z,12.14
2022-09-20T08:06:41.933Z,12.19
2022-09-20T08:07:44.459Z,12.23
2022-09-20T08:08:47.612Z,12.06
2022-09-20T08:09:50.741Z,12.02
2022-09-20T08:10:55.586Z,12.24
2022-09-20T08:11:58.646Z,12.56
2022-09-20T08:14:24.757Z,12.58
2022-09-20T08:15:27.469Z,12.29
2022-09-20T08:16:31.566Z,12.28
2022-09-20T08:17:37.339Z,12.57
2022-09-20T08:18:44.955Z,12.73
2022-09-20T08:19:47.955Z,12.80
2022-09-20T08:20:51.115Z,12.76
2022-09-20T08:21:54.450Z,12.65
2022-09-20T08:23:22.098Z,12.55
2022-09-20T08:24:22.307Z,12.42
2022-09-20T08:25:25.103Z,12.31
2022-09-20T08:26:31.819Z,12.37
2022-09-20T08:27:34.527Z,12.40
2022-09-20T08:28:37.215Z,12.38
2022-09-20T08:29:40.756Z,12.19
2022-09-20T08:30:43.418Z,12.16
2022-09-20T08:31:47.494Z,12.13
2022-09-20T08:32:50.552Z,12.15
2022-09-20T08:33:54.765Z,12.23
2022-09-20T08:34:57.552Z,12.44
2022-09-20T08:36:00.610Z,12.49
2022-09-20T08:37:03.275Z,12.50
2022-09-20T08:41:15.891Z,12.64
2022-09-20T08:42:33.926Z,12.53
2022-09-20T08:43:46.145Z,12.62
2022-09-20T08:45:00.451Z,12.72
2022-09-20T08:46:06.384Z,12.79
2022-09-20T08:47:35.867Z,12.72
2022-09-20T08:48:38.776Z,12.69
2022-09-20T08:49:46.180Z,12.66
2022-09-20T08:50:49.818Z,12.53
2022-09-20T08:51:54.576Z,12.49
2022-09-20T08:53:00.836Z,12.53
2022-09-20T08:54:07.333Z,12.56
2022-09-20T08:55:22.476Z,12.46
2022-09-20T08:56:30.349Z,12.58
2022-09-20T08:57:33.957Z,12.52
2022-09-20T08:58:36.828Z,12.62
2022-09-20T08:59:40.980Z,12.70
2022-09-20T09:00:47.136Z,12.52
2022-09-20T09:01:51.474Z,12.77
2022-09-20T09:02:56.265Z,12.83
2022-09-20T09:04:12.070Z,12.82
2022-09-20T09:05:44.947Z,12.65
2022-09-20T09:06:50.103Z,12.85
2022-09-20T09:07:52.721Z,12.82
2022-09-20T09:08:59.754Z,12.93
2022-09-20T09:10:03.384Z,12.88
2022-09-20T09:11:14.550Z,12.59
2022-09-20T09:12:26.069Z,12.78
2022-09-20T09:13:32.221Z,12.94
2022-09-20T09:14:54.447Z,12.85
2022-09-20T09:16:01.019Z,12.84
2022-09-20T09:17:03.629Z,12.88
2022-09-20T09:18:11.945Z,13.04
2022-09-20T09:19:34.194Z,13.10
2022-09-20T09:20:45.008Z,13.29
2022-09-20T09:21:47.725Z,13.85
2022-09-20T09:23:02.923Z,14.58
2022-09-20T09:24:18.208Z,14.73
2022-09-20T09:25:28.938Z,14.94
2022-09-20T09:26:39.124Z,15.04
2022-09-20T09:27:58.268Z,14.87
2022-09-20T09:29:17.932Z,15.07
2022-09-20T09:30:25.287Z,15.18
2022-09-20T09:31:33.204Z,15.62
2022-09-20T09:32:37.713Z,15.78
2022-09-20T09:33:45.570Z,15.90
2022-09-20T09:34:48.173Z,15.60
2022-09-20T09:36:07.081Z,15.81
2022-09-20T09:37:28.300Z,15.78
2022-09-20T09:38:40.645Z,15.32
2022-09-20T09:39:43.380Z,15.18
2022-09-20T09:40:57.587Z,14.91
2022-09-20T09:42:01.431Z,14.63
2022-09-20T09:43:04.549Z,14.31
2022-09-20T09:44:19.766Z,14.54
2022-09-20T09:45:38.949Z,14.52
2022-09-20T09:46:42.025Z,14.40
2022-09-20T09:47:46.195Z,14.86
2022-09-20T09:49:10.952Z,14.99
2022-09-20T09:50:35.448Z,15.07
2022-09-20T09:51:38.908Z,15.39
2022-09-20T09:52:41.963Z,15.79
2022-09-20T09:53:46.973Z,15.92
2022-09-20T09:54:52.508Z,16.41
2022-09-20T09:56:14.345Z,16.69
2022-09-20T09:57:43.265Z,16.58
2022-09-20T09:58:56.345Z,17.29
2022-09-20T10:00:20.001Z,17.65
2022-09-20T10:01:40.189Z,18.21
2022-09-20T10:03:01.328Z,17.62
2022-09-20T10:04:32.919Z,17.46
2022-09-20T10:05:41.347Z,17.70
2022-09-20T10:07:03.231Z,18.18
2022-09-20T10:08:31.066Z,18.30
2022-09-20T10:09:45.803Z,18.54
2022-09-20T10:11:10.359Z,18.45
2022-09-20T10:12:33.603Z,18.01
2022-09-20T10:14:03.777Z,18.63
2022-09-20T10:16:04.026Z,18.56
2022-09-20T10:17:31.756Z,17.47
2022-09-20T10:18:39.964Z,17.63
2022-09-20T10:20:08.279Z,18.38
2022-09-20T10:21:32.038Z,18.49
2022-09-20T10:23:34.497Z,18.83
2022-09-20T10:24:46.448Z,18.94
2022-09-20T10:26:08.243Z,18.94
2022-09-20T10:27:22.513Z,18.95
2022-09-20T10:28:54.685Z,19.25
2022-09-20T10:29:58.262Z,19.17
2022-09-20T10:31:38.107Z,19.01
2022-09-20T10:33:00.055Z,19.21
2022-09-20T10:34:17.588Z,19.31
2022-09-20T10:35:33.224Z,19.13
2022-09-20T10:36:56.222Z,19.37
2022-09-20T10:38:10.956Z,18.65
2022-09-20T10:39:29.385Z,18.20
2022-09-20T10:40:56.837Z,18.06
2022-09-20T10:42:55.518Z,18.07
2022-09-20T10:44:22.391Z,18.23
2022-09-20T10:47:25.690Z,17.39
2022-09-20T10:48:33.803Z,17.18
2022-09-20T10:49:50.690Z,17.06
2022-09-20T10:51:30.874Z,16.59
2022-09-20T10:52:56.969Z,16.48
2022-09-20T10:54:17.910Z,16.66
2022-09-20T10:55:31.811Z,16.35
2022-09-20T10:56:50.977Z,16.17
2022-09-20T10:58:01.696Z,16.08
2022-09-20T10:59:42.917Z,16.38
2022-09-20T11:01:01.079Z,15.65
2022-09-20T11:02:17.537Z,15.35
2022-09-20T11:03:43.266Z,15.00
2022-09-20T11:05:10.194Z,14.65
2022-09-20T11:06:24.458Z,14.81
2022-09-20T11:07:43.746Z,14.65
2022-09-20T11:08:54.505Z,14.38
2022-09-20T11:10:15.044Z,14.36
2022-09-20T11:11:23.794Z,14.32
2022-09-20T11:12:35.149Z,14.04
2022-09-20T11:13:40.968Z,14.02
2022-09-20T11:14:57.789Z,13.86
2022-09-20T11:16:23.455Z,13.97
2022-09-20T11:17:40.095Z,13.73
2022-09-20T11:19:05.674Z,13.57
2022-09-20T11:20:20.912Z,13.53
2022-09-20T11:21:34.290Z,13.74
2022-09-20T11:22:50.968Z,13.91
2022-09-20T11:24:05.704Z,14.06
2022-09-20T11:25:46.601Z,14.09
2022-09-20T11:26:58.206Z,14.15
2022-09-20T11:28:18.930Z,14.29
2022-09-20T11:29:27.552Z,14.60
2022-09-20T11:30:32.957Z,14.56
2022-09-20T11:31:46.736Z,14.66
2022-09-20T11:33:07.824Z,14.83
2022-09-20T11:34:30.298Z,14.99
2022-09-20T11:35:47.124Z,15.27
2022-09-20T11:37:02.781Z,15.68
2022-09-20T11:38:33.584Z,15.64
2022-09-20T11:39:36.206Z,15.72
2022-09-20T11:40:46.368Z,15.48
2022-09-20T11:41:52.057Z,15.77
2022-09-20T11:42:57.828Z,16.00
2022-09-20T11:44:07.483Z,16.65
2022-09-20T11:45:13.207Z,16.57
2022-09-20T11:46:29.686Z,16.13
2022-09-20T11:47:54.907Z,15.99
2022-09-20T11:49:12.578Z,15.83
2022-09-20T11:50:43.329Z,15.69
2022-09-20T11:52:00.306Z,15.28
2022-09-20T11:53:28.055Z,15.27
2022-09-20T11:54:55.964Z,15.40
2022-09-20T11:56:08.174Z,15.23
2022-09-20T11:57:16.867Z,15.39
2022-09-20T11:58:22.673Z,15.27
2022-09-20T11:59:28.442Z,15.22
2022-09-20T12:00:35.700Z,15.52
2022-09-20T12:01:42.874Z,15.51
2022-09-20T12:02:50.631Z,15.86
2022-09-20T12:04:20.952Z,16.16
2022-09-20T12:05:35.507Z,16.48
2022-09-20T12:06:42.762Z,16.44
2022-09-20T12:07:46.339Z,16.52
2022-09-20T12:08:53.101Z,16.96
2022-09-20T12:10:09.384Z,17.22
2022-09-20T12:11:14.871Z,17.42
2022-09-20T12:12:28.685Z,17.62
2022-09-20T12:13:37.772Z,17.90
2022-09-20T12:14:40.558Z,17.66
2022-09-20T12:15:43.397Z,17.95
2022-09-20T12:16:48.379Z,18.04
2022-09-20T12:17:51.503Z,18.21
2022-09-20T12:18:56.756Z,17.92
2022-09-20T12:19:59.313Z,17.55
2022-09-20T12:21:08.155Z,17.85
2022-09-20T12:22:11.569Z,17.36
2022-09-20T12:23:42.687Z,17.74
2022-09-20T12:24:45.794Z,17.98
2022-09-20T12:26:04.790Z,18.37
2022-09-20T12:27:29.451Z,18.73
2022-09-20T12:28:41.052Z,18.75
2022-09-20T12:29:47.808Z,18.75
2022-09-20T12:31:22.430Z,17.90
2022-09-20T12:32:56.564Z,17.26
2022-09-20T12:34:01.230Z,16.85
2022-09-20T12:35:35.704Z,16.79
2022-09-20T12:36:43.753Z,16.36
2022-09-20T12:37:46.447Z,16.31
2022-09-20T12:39:04.676Z,16.29
2022-09-20T12:40:16.673Z,16.38
2022-09-20T12:41:28.193Z,16.32
2022-09-20T12:42:33.494Z,16.34
2022-09-20T12:43:48.010Z,16.36
2022-09-20T12:44:50.621Z,16.28
2022-09-20T12:46:01.234Z,16.13
2022-09-20T12:47:12.805Z,16.38
2022-09-20T12:48:20.182Z,16.44
2022-09-20T12:50:05.174Z,16.21
2022-09-20T12:51:41.318Z,16.01
2022-09-20T12:53:01.295Z,16.21
2022-09-20T12:54:10.150Z,16.37
2022-09-20T12:55:30.136Z,16.56
2022-09-20T12:56:36.531Z,16.82
2022-09-20T12:57:40.377Z,17.25
2022-09-20T12:58:45.606Z,17.19
2022-09-20T12:59:58.118Z,16.87
2022-09-20T13:01:03.729Z,16.99
2022-09-20T13:02:44.995Z,17.03
2022-09-20T13:03:49.300Z,17.52
2022-09-20T13:04:55.933Z,17.81
2022-09-20T13:06:07.417Z,17.62
2022-09-20T13:07:40.099Z,17.28
2022-09-20T13:08:48.809Z,17.06
2022-09-20T13:09:51.571Z,16.90
2022-09-20T13:11:02.035Z,16.75
2022-09-20T13:12:05.604Z,16.57
2022-09-20T13:13:44.573Z,16.04
2022-09-20T13:14:47.720Z,15.65
2022-09-20T13:15:53.818Z,15.91
2022-09-20T13:17:27.406Z,15.82
2022-09-20T13:18:30.409Z,15.31
2022-09-20T13:19:42.110Z,15.58
2022-09-20T13:20:44.973Z,15.59
2022-09-20T13:22:03.325Z,15.57
2022-09-20T13:23:06.506Z,15.50
2022-09-20T13:24:16.692Z,15.38
2022-09-20T13:25:22.392Z,15.37
2022-09-20T13:26:33.743Z,15.25
2022-09-20T13:27:45.447Z,15.32
2022-09-20T13:28:53.366Z,15.49
2022-09-20T13:30:11.295Z,15.62
2022-09-20T13:31:24.624Z,15.85
2022-09-20T13:32:32.514Z,16.13
2022-09-20T13:33:35.730Z,16.21
2022-09-20T13:34:38.777Z,16.16
2022-09-20T13:35:43.625Z,16.26
2022-09-20T13:36:49.085Z,16.33
2022-09-20T13:38:06.301Z,16.55
2022-09-20T13:39:23.985Z,16.51
2022-09-20T13:40:43.960Z,16.51
2022-09-20T13:41:47.353Z,16.64
2022-09-20T13:43:12.978Z,16.24
2022-09-20T13:44:18.145Z,16.46
2022-09-20T13:45:25.344Z,16.60
2022-09-20T13:46:32.006Z,16.74
2022-09-20T13:47:34.767Z,16.71
2022-09-20T13:48:38.170Z,16.48
2022-09-20T13:49:50.036Z,16.46
2022-09-20T13:50:53.887Z,16.38
2022-09-20T13:51:56.957Z,16.50
2022-09-20T13:53:02.130Z,16.10
2022-09-20T13:54:28.233Z,16.21
2022-09-20T13:55:34.887Z,16.07
2022-09-20T13:56:38.380Z,15.78
2022-09-20T13:57:41.582Z,15.78
2022-09-20T13:58:44.883Z,15.43
2022-09-20T13:59:48.315Z,15.07
2022-09-20T14:00:59.200Z,14.94
2022-09-20T14:02:03.401Z,14.61
2022-09-20T14:03:06.317Z,14.60
2022-09-20T14:04:15.977Z,14.37
2022-09-20T14:05:24.359Z,14.33
2022-09-20T14:06:28.497Z,14.47
2022-09-20T14:07:32.698Z,14.38
2022-09-20T14:08:38.135Z,14.18
2022-09-20T14:09:41.723Z,14.13
2022-09-20T14:10:45.536Z,13.99
2022-09-20T14:11:49.602Z,13.88
2022-09-20T14:12:57.074Z,14.09
2022-09-20T14:14:05.293Z,14.04
2022-09-20T14:15:09.982Z,14.06
2022-09-20T14:16:13.586Z,14.03
2022-09-20T14:17:19.569Z,13.83
2022-09-20T14:18:23.452Z,13.87
2022-09-20T14:19:41.570Z,13.83
2022-09-20T14:20:48.089Z,13.94
2022-09-20T14:21:51.194Z,13.97
2022-09-20T14:22:59.028Z,13.83
2022-09-20T14:24:29.214Z,13.93
2022-09-20T14:25:34.772Z,13.86
2022-09-20T14:26:40.023Z,14.18
2022-09-20T14:27:43.086Z,14.32
2022-09-20T14:28:46.773Z,14.40
2022-09-20T14:29:52.073Z,14.43
2022-09-20T14:31:13.881Z,14.72
2022-09-20T14:32:19.274Z,14.80
2022-09-20T14:33:22.261Z,15.17
2022-09-20T14:34:25.655Z,15.40
2022-09-20T14:35:29.256Z,15.52
2022-09-20T14:36:32.546Z,15.63
2022-09-20T14:37:48.899Z,15.42
2022-09-20T14:38:55.315Z,15.20
2022-09-20T14:40:05.162Z,15.01
2022-09-20T14:41:08.034Z,15.19
2022-09-20T14:42:47.612Z,15.27
2022-09-20T14:43:57.178Z,15.05
2022-09-20T14:45:00.241Z,14.95
2022-09-20T14:46:06.273Z,15.01
2022-09-20T14:47:15.950Z,15.09
2022-09-20T14:48:18.789Z,15.17
2022-09-20T14:49:28.247Z,15.16
2022-09-20T14:50:39.264Z,15.24
2022-09-20T14:51:42.200Z,15.16
2022-09-20T14:52:45.661Z,15.43
2022-09-20T14:53:52.054Z,15.51
2022-09-20T14:55:13.931Z,15.44
2022-09-20T14:56:25.745Z,15.57
2022-09-20T14:57:30.229Z,15.70
2022-09-20T14:58:34.122Z,15.78
2022-09-20T14:59:42.257Z,15.74
2022-09-20T15:00:52.056Z,15.69
2022-09-20T15:02:10.454Z,15.61
2022-09-20T15:03:16.343Z,15.31
2022-09-20T15:04:25.641Z,15.12
2022-09-20T15:05:30.080Z,14.98
2022-09-20T15:06:36.258Z,14.83
2022-09-20T15:07:39.112Z,14.71
2022-09-20T15:08:46.383Z,14.57
2022-09-20T15:09:49.892Z,14.36
2022-09-20T15:10:52.819Z,14.26
2022-09-20T15:12:07.048Z,14.23
2022-09-20T15:13:11.624Z,13.95
2022-09-20T15:14:14.684Z,13.76
2022-09-20T15:15:19.257Z,13.63
2022-09-20T15:16:22.639Z,13.67
2022-09-20T15:17:25.531Z,13.53
2022-09-20T15:18:40.710Z,13.55
2022-09-20T15:19:43.659Z,13.64
2022-09-20T15:20:46.921Z,13.42
2022-09-20T15:21:49.878Z,13.08
2022-09-20T15:22:56.698Z,12.94
2022-09-20T15:23:59.602Z,13.17
2022-09-20T15:25:02.547Z,13.20
2022-09-20T15:26:06.591Z,13.08
2022-09-20T15:27:12.342Z,12.77
2022-09-20T15:28:17.465Z,12.53
2022-09-20T15:29:20.426Z,12.62
2022-09-20T15:30:23.396Z,12.80
2022-09-20T15:31:28.374Z,12.69
2022-09-20T15:32:31.715Z,12.46
2022-09-20T15:33:34.608Z,12.35
2022-09-20T15:34:37.649Z,12.38
2022-09-20T15:35:41.537Z,12.45
2022-09-20T15:36:44.897Z,12.43
2022-09-20T15:37:50.641Z,12.48
2022-09-20T15:38:54.360Z,12.41
2022-09-20T15:39:57.234Z,12.38
2022-09-20T15:41:04.428Z,12.29
2022-09-20T15:42:07.617Z,12.42
2022-09-20T15:43:16.508Z,12.26
2022-09-20T15:44:20.111Z,12.18
2022-09-20T15:45:23.659Z,12.07
2022-09-20T15:46:29.300Z,11.85
2022-09-20T15:47:32.273Z,11.74
2022-09-20T15:48:38.190Z,11.80
2022-09-20T15:49:43.512Z,11.77
2022-09-20T15:51:03.423Z,11.74
2022-09-20T15:52:06.308Z,11.82
2022-09-20T15:53:09.548Z,11.93
2022-09-20T15:54:14.902Z,11.77
2022-09-20T15:55:19.154Z,11.55
2022-09-20T15:56:24.727Z,11.48
2022-09-20T15:57:31.119Z,11.49
2022-09-20T15:58:36.225Z,11.47
2022-09-20T15:59:39.732Z,11.71
2022-09-20T16:00:42.837Z,11.75